BTJ weather

Sultan Iskandar Muda International Airport
Banda Aceh, Aceh, Indonesia

Public forecast

Using degrees Celsius for public forecast. Weather courtesy of forecast.io.

METAR (pilot weather report)

Closest report is Soewondo Air Force Base, 227.5 nm (421.3 km) ESE. Retrieved UTC (0 seconds ago):

TAF (pilot weather forecast)

Retrieved 2019/03/26 18:00 UTC (5 hours ago):

TAF WITT 261700Z 2618/2718 12007KT 8000 SCT018 BECMG 2618/2620 00000KT 3000 BR BECMG 2700/2702 16007KT 7000 SCT017 PROB40 TEMPO 2704/2708 07010KT 5000 -TSRA FEW016CB SCT016